Time;durP1;ratioP1;P1;durP2;ratioP2;P2;SDS_P1;SDS_P2;PMS_P1;PMS_P2;Temp;Humidity;BMP_temperature;BMP_pressure;BME280_temperature;BME280_humidity;BME280_pressure;Samples;Min_cycle;Max_cycle;Signal;HPM_P1;HPM_P2
2023/02/03 00:00:30;;;;;;;18.30;15.10;;;;;;;0.73;85.34;99761.21;105104;1263;64740;-73
2023/02/03 00:02:58;;;;;;;19.90;15.90;;;;;;;0.73;85.49;99764.34;105060;1266;59234;-73
2023/02/03 00:05:27;;;;;;;18.50;15.40;;;;;;;0.72;85.38;99766.82;105094;1264;65538;-72
2023/02/03 00:07:55;;;;;;;20.70;17.00;;;;;;;0.72;85.41;99764.23;105155;1263;59613;-72
2023/02/03 00:10:24;;;;;;;19.60;14.80;;;;;;;0.71;85.40;99769.31;105266;1263;59685;-73
2023/02/03 00:12:53;;;;;;;20.20;16.00;;;;;;;0.70;85.34;99766.57;105352;1266;65703;-76
2023/02/03 00:15:22;;;;;;;21.40;16.10;;;;;;;0.70;85.40;99767.63;105285;1264;60833;-74
2023/02/03 00:17:50;;;;;;;18.30;14.20;;;;;;;0.70;85.40;99769.00;105332;1263;65671;-74
2023/02/03 00:20:18;;;;;;;20.60;14.30;;;;;;;0.70;85.44;99772.96;105257;1267;59646;-73
2023/02/03 00:22:47;;;;;;;19.30;15.60;;;;;;;0.71;85.47;99771.04;105012;1264;61472;-73
2023/02/03 00:25:15;;;;;;;20.90;15.90;;;;;;;0.71;85.51;99771.02;105171;1264;65621;-73
2023/02/03 00:27:43;;;;;;;21.40;17.30;;;;;;;0.71;85.44;99771.00;105359;1264;59647;-72
2023/02/03 00:30:11;;;;;;;22.40;17.40;;;;;;;0.72;85.46;99774.27;105470;1269;65298;-74
2023/02/03 00:32:40;;;;;;;25.80;18.00;;;;;;;0.73;85.62;99773.19;105383;1264;59281;-72
2023/02/03 00:35:08;;;;;;;22.50;16.60;;;;;;;0.73;85.40;99770.92;105990;1254;59729;-72
2023/02/03 00:37:37;;;;;;;27.70;19.70;;;;;;;0.72;85.43;99771.83;105858;1254;65532;-73
2023/02/03 00:40:05;;;;;;;23.00;17.60;;;;;;;0.72;85.43;99772.86;105926;1254;59792;-73
2023/02/03 00:42:34;;;;;;;21.90;17.40;;;;;;;0.73;85.42;99771.27;105914;1254;65664;-72
2023/02/03 00:45:03;;;;;;;22.60;17.70;;;;;;;0.73;85.43;99768.48;105791;1257;59544;-72
2023/02/03 00:47:31;;;;;;;23.40;18.20;;;;;;;0.73;85.55;99769.52;106033;1252;59736;-72
2023/02/03 00:49:59;;;;;;;19.60;15.60;;;;;;;0.73;85.49;99769.18;106066;1253;65876;-71
2023/02/03 00:52:28;;;;;;;22.40;17.40;;;;;;;0.73;85.38;99773.34;105736;1254;59611;-74
2023/02/03 00:54:56;;;;;;;23.90;18.30;;;;;;;0.72;85.40;99776.36;105802;1254;64572;-71
2023/02/03 00:57:24;;;;;;;25.60;18.40;;;;;;;0.69;85.32;99778.74;105957;1253;60027;-74
2023/02/03 00:59:53;;;;;;;22.50;17.30;;;;;;;0.68;85.33;99779.66;106004;1254;59669;-72
2023/02/03 01:02:21;;;;;;;24.40;18.40;;;;;;;0.68;85.41;99779.86;105948;1253;66013;-71
2023/02/03 01:04:51;;;;;;;23.40;18.60;;;;;;;0.68;85.36;99778.30;106034;1256;60015;-71
2023/02/03 01:07:19;;;;;;;27.50;18.20;;;;;;;0.67;85.36;99778.46;105791;1254;65693;-71
2023/02/03 01:09:49;;;;;;;25.90;18.60;;;;;;;0.67;85.32;99782.31;105813;1257;59562;-72
2023/02/03 01:12:17;;;;;;;22.70;17.90;;;;;;;0.66;85.37;99775.60;105792;1257;59602;-72
2023/02/03 01:14:45;;;;;;;22.70;17.20;;;;;;;0.65;85.39;99774.23;105835;1256;65989;-72
2023/02/03 01:17:13;;;;;;;24.40;17.60;;;;;;;0.65;85.29;99775.13;105885;1256;59698;-74
2023/02/03 01:19:41;;;;;;;22.40;16.50;;;;;;;0.64;85.33;99779.68;105938;1253;65520;-72
2023/02/03 01:22:09;;;;;;;28.00;19.90;;;;;;;0.63;85.34;99778.52;105916;1256;59710;-73
2023/02/03 01:24:37;;;;;;;22.70;16.40;;;;;;;0.62;85.34;99776.47;105867;1254;59855;-73
2023/02/03 01:27:06;;;;;;;22.50;17.50;;;;;;;0.62;85.37;99772.68;105933;1256;66163;-73
2023/02/03 01:29:34;;;;;;;23.40;17.00;;;;;;;0.61;85.42;99772.02;105930;1257;59854;-73
2023/02/03 01:32:03;;;;;;;24.90;18.10;;;;;;;0.62;85.43;99771.48;105710;1254;65585;-73
2023/02/03 01:34:31;;;;;;;27.70;19.90;;;;;;;0.63;85.45;99771.73;105928;1257;59532;-73
2023/02/03 01:36:59;;;;;;;26.70;18.30;;;;;;;0.64;85.37;99775.34;105956;1257;59714;-73
2023/02/03 01:39:29;;;;;;;20.10;14.50;;;;;;;0.66;85.42;99773.35;105966;1254;65814;-73
2023/02/03 01:41:57;;;;;;;26.10;18.00;;;;;;;0.66;85.35;99772.48;105912;1254;60023;-73
2023/02/03 01:44:46;;;;;;;26.50;18.50;;;;;;;0.65;85.29;99770.48;105818;1259;64609;-73
2023/02/03 01:47:20;;;;;;;18.50;14.10;;;;;;;0.64;85.30;99769.96;105854;1258;59639;-73
2023/02/03 01:50:00;;;;;;;18.70;14.10;;;;;;;0.64;85.31;99768.05;105912;1256;60025;-73
2023/02/03 01:52:28;;;;;;;18.70;14.00;;;;;;;0.64;85.32;99768.40;106419;1256;65874;-74
2023/02/03 01:54:57;;;;;;;20.30;14.20;;;;;;;0.66;85.36;99771.11;105783;1254;59728;-74
2023/02/03 01:57:33;;;;;;;22.90;16.10;;;;;;;0.66;85.33;99774.36;105979;1253;65272;-73
2023/02/03 02:00:03;;;;;;;26.80;18.70;;;;;;;0.66;85.27;99774.90;105852;1257;59558;-73
2023/02/03 02:02:41;;;;;;;24.60;16.60;;;;;;;0.65;85.19;99773.23;105753;1254;59564;-73
2023/02/03 02:05:33;;;;;;;20.10;14.20;;;;;;;0.64;85.23;99773.41;105813;1254;64875;-73
2023/02/03 02:08:02;;;;;;;16.20;12.30;;;;;;;0.65;85.25;99777.35;105963;1254;59622;-73
2023/02/03 02:10:30;;;;;;;16.60;13.00;;;;;;;0.67;85.35;99776.93;105868;1254;64581;-75
2023/02/03 02:13:01;;;;;;;15.20;12.50;;;;;;;0.68;85.24;99778.27;105907;1256;59643;-73
2023/02/03 02:15:42;;;;;;;17.50;13.70;;;;;;;0.68;85.27;99774.13;105997;1253;63796;-74
2023/02/03 02:18:22;;;;;;;18.50;13.80;;;;;;;0.66;85.14;99771.77;105783;1254;65950;-74
2023/02/03 02:20:54;;;;;;;20.20;14.40;;;;;;;0.67;85.22;99771.73;105797;1254;60052;-74
2023/02/03 02:23:31;;;;;;;17.10;14.10;;;;;;;0.68;85.23;99771.70;105969;1256;65434;-73
2023/02/03 02:26:21;;;;;;;18.60;13.90;;;;;;;0.67;85.11;99773.45;105897;1253;59631;-73
2023/02/03 02:29:15;;;;;;;18.10;13.20;;;;;;;0.66;85.15;99779.37;106463;1254;59714;-73
2023/02/03 02:31:55;;;;;;;16.90;12.50;;;;;;;0.67;85.11;99779.00;105923;1253;65892;-73
2023/02/03 02:34:36;;;;;;;14.90;11.90;;;;;;;0.69;85.14;99782.40;105758;1254;59569;-73
2023/02/03 02:37:04;;;;;;;18.10;12.70;;;;;;;0.70;85.10;99786.16;105656;1254;65544;-73
2023/02/03 02:39:55;;;;;;;17.10;12.70;;;;;;;0.69;85.15;99786.20;105684;1254;59622;-73
2023/02/03 02:42:40;;;;;;;21.50;15.30;;;;;;;0.68;84.98;99784.52;105640;1254;59742;-73
2023/02/03 02:45:18;;;;;;;17.30;14.70;;;;;;;0.67;85.02;99785.08;105703;1259;65577;-73
2023/02/03 02:47:47;;;;;;;18.60;14.30;;;;;;;0.67;84.97;99785.06;105779;1258;60214;-74
2023/02/03 02:50:22;;;;;;;17.30;13.80;;;;;;;0.68;84.97;99789.73;105686;1254;65588;-73
2023/02/03 02:52:51;;;;;;;17.40;13.00;;;;;;;0.69;84.99;99785.69;105761;1257;59644;-73
2023/02/03 02:55:29;;;;;;;16.00;12.60;;;;;;;0.72;85.08;99785.52;105754;1254;59924;-72
2023/02/03 02:58:02;;;;;;;13.80;11.80;;;;;;;0.75;85.14;99788.13;105745;1254;65176;-74
2023/02/03 03:00:31;;;;;;;14.90;12.30;;;;;;;0.79;85.18;99785.87;105952;1254;59606;-73
2023/02/03 03:03:14;;;;;;;15.50;12.00;;;;;;;0.83;85.22;99784.64;105633;1254;65368;-73
2023/02/03 03:05:47;;;;;;;15.50;12.10;;;;;;;0.87;85.16;99786.04;105756;1254;59714;-73
2023/02/03 03:08:15;;;;;;;14.60;11.60;;;;;;;0.90;85.27;99784.33;105783;1254;59630;-73
2023/02/03 03:10:43;;;;;;;16.60;12.20;;;;;;;0.92;85.16;99780.90;105482;1260;65915;-73
2023/02/03 03:13:16;;;;;;;16.40;13.10;;;;;;;0.95;85.12;99778.31;105697;1257;60173;-73
2023/02/03 03:15:46;;;;;;;17.10;13.10;;;;;;;0.98;85.12;99774.90;105708;1254;65540;-73
2023/02/03 03:18:24;;;;;;;16.80;13.10;;;;;;;1.00;85.18;99773.95;106038;1254;59548;-73
2023/02/03 03:20:54;;;;;;;18.80;14.40;;;;;;;0.99;85.12;99774.98;105756;1259;59615;-73
2023/02/03 03:23:26;;;;;;;20.90;14.50;;;;;;;0.97;84.92;99771.12;105801;1256;65615;-73
2023/02/03 03:26:09;;;;;;;17.30;13.70;;;;;;;0.95;84.80;99773.66;105869;1256;59980;-73
2023/02/03 03:28:48;;;;;;;18.00;14.00;;;;;;;0.93;84.76;99773.25;105684;1257;65559;-73
2023/02/03 03:31:17;;;;;;;19.00;14.30;;;;;;;0.90;84.58;99776.34;105747;1254;59729;-72
2023/02/03 03:33:45;;;;;;;18.60;14.30;;;;;;;0.86;84.52;99773.90;106084;1257;60004;-73
2023/02/03 03:36:24;;;;;;;17.10;13.50;;;;;;;0.83;84.51;99772.34;105777;1254;65685;-73
2023/02/03 03:38:56;;;;;;;17.90;13.00;;;;;;;0.80;84.44;99771.79;105816;1257;59678;-73
2023/02/03 03:41:29;;;;;;;15.80;13.10;;;;;;;0.77;84.41;99776.09;105982;1254;65571;-73
2023/02/03 03:43:59;;;;;;;11.80;9.00;;;;;;;0.73;84.29;99775.44;105961;1256;59726;-73
2023/02/03 03:46:29;;;;;;;14.90;11.90;;;;;;;0.69;84.24;99776.31;105818;1257;59631;-74
2023/02/03 03:49:02;;;;;;;13.90;11.40;;;;;;;0.67;84.26;99780.21;105791;1259;65682;-73
2023/02/03 03:51:45;;;;;;;14.50;11.40;;;;;;;0.67;84.24;99782.81;106192;1256;59941;-73
2023/02/03 03:54:15;;;;;;;13.30;10.90;;;;;;;0.67;84.28;99780.38;106103;1254;65324;-73
2023/02/03 03:57:22;;;;;;;15.20;11.50;;;;;;;0.67;84.22;99784.90;105960;1254;60436;-72
2023/02/03 03:59:50;;;;;;;14.00;11.20;;;;;;;0.65;84.22;99788.81;105970;1253;60540;-73
2023/02/03 04:02:19;;;;;;;14.40;11.10;;;;;;;0.63;84.26;99787.87;105797;1257;67012;-73
2023/02/03 04:04:48;;;;;;;13.90;11.40;;;;;;;0.63;84.26;99789.29;105778;1254;60463;-73
2023/02/03 04:07:17;;;;;;;14.50;12.20;;;;;;;0.62;84.24;99789.66;105799;1254;65230;-73
2023/02/03 04:09:45;;;;;;;14.70;11.30;;;;;;;0.62;84.22;99790.02;105961;1254;60374;-73
2023/02/03 04:12:23;;;;;;;13.60;11.60;;;;;;;0.62;84.30;99790.54;105798;1253;60536;-73
2023/02/03 04:14:51;;;;;;;15.40;12.40;;;;;;;0.62;84.28;99790.52;105776;1257;66903;-73
2023/02/03 04:17:20;;;;;;;15.60;13.10;;;;;;;0.63;84.29;99794.29;105852;1254;60530;-73
2023/02/03 04:19:48;;;;;;;15.00;12.20;;;;;;;0.63;84.29;99800.17;106120;1254;65347;-73
2023/02/03 04:22:16;;;;;;;15.90;12.70;;;;;;;0.63;84.25;99798.80;105967;1254;60417;-73
2023/02/03 04:24:44;;;;;;;16.40;13.90;;;;;;;0.63;84.29;99800.16;105842;1259;60517;-73
2023/02/03 04:27:12;;;;;;;18.40;15.00;;;;;;;0.65;84.33;99800.43;105969;1254;66460;-72
2023/02/03 04:29:40;;;;;;;17.70;13.10;;;;;;;0.65;84.28;99809.08;106060;1252;60555;-72
2023/02/03 04:32:08;;;;;;;17.50;13.40;;;;;;;0.63;84.16;99809.34;105974;1253;65346;-72
2023/02/03 04:34:37;;;;;;;17.20;13.30;;;;;;;0.61;84.14;99809.64;105935;1254;60475;-73
2023/02/03 04:37:05;;;;;;;15.30;11.90;;;;;;;0.59;84.17;99810.42;105831;1257;61178;-73
2023/02/03 04:39:34;;;;;;;12.40;10.40;;;;;;;0.58;84.15;99815.48;106040;1254;66748;-73
2023/02/03 04:42:02;;;;;;;15.40;12.30;;;;;;;0.55;84.15;99813.34;105836;1254;60428;-72
2023/02/03 04:44:31;;;;;;;15.90;11.90;;;;;;;0.52;84.06;99812.80;105881;1254;65609;-72
2023/02/03 04:46:59;;;;;;;16.80;13.30;;;;;;;0.52;84.12;99812.65;105900;1254;60336;-72
2023/02/03 04:49:28;;;;;;;14.80;12.50;;;;;;;0.52;84.09;99813.70;105903;1254;60495;-72
2023/02/03 04:51:56;;;;;;;17.20;13.00;;;;;;;0.51;84.10;99815.27;106027;1254;66509;-73
2023/02/03 04:54:24;;;;;;;16.00;12.60;;;;;;;0.51;84.02;99813.88;105971;1254;60453;-73
2023/02/03 04:56:54;;;;;;;17.70;13.60;;;;;;;0.50;84.02;99816.39;106033;1254;65615;-72
2023/02/03 04:59:22;;;;;;;17.50;14.80;;;;;;;0.47;84.06;99820.82;106030;1254;60506;-75
2023/02/03 05:01:50;;;;;;;16.00;13.40;;;;;;;0.46;84.09;99820.86;105756;1259;60352;-73
2023/02/03 05:04:18;;;;;;;17.40;13.80;;;;;;;0.47;84.08;99821.36;106325;1254;65477;-76
2023/02/03 05:06:47;;;;;;;15.60;13.50;;;;;;;0.47;84.04;99825.02;105968;1254;60425;-72
2023/02/03 05:09:16;;;;;;;14.70;12.20;;;;;;;0.47;84.06;99822.23;106231;1259;65562;-69
2023/02/03 05:11:46;;;;;;;14.90;12.10;;;;;;;0.47;84.06;99827.07;105840;1254;60331;-71
2023/02/03 05:14:15;;;;;;;14.60;13.00;;;;;;;0.47;84.02;99829.48;106263;1254;60887;-71
2023/02/03 05:16:43;;;;;;;15.00;13.00;;;;;;;0.46;84.05;99829.37;105397;1254;66530;-69
2023/02/03 05:19:13;;;;;;;17.80;13.80;;;;;;;0.47;84.12;99831.77;105985;1254;60606;-69
2023/02/03 05:21:41;;;;;;;14.70;11.60;;;;;;;0.47;84.06;99838.16;106310;1254;65567;-70
2023/02/03 05:24:10;;;;;;;15.90;13.30;;;;;;;0.47;84.05;99843.54;105974;1253;60440;-70
2023/02/03 05:26:40;;;;;;;14.50;11.90;;;;;;;0.46;84.05;99846.84;108435;1253;58369;-70
2023/02/03 05:29:10;;;;;;;16.70;13.50;;;;;;;0.46;84.09;99848.40;105702;1254;65741;-70
2023/02/03 05:31:39;;;;;;;17.20;14.10;;;;;;;0.47;84.03;99846.84;105821;1254;60425;-71
2023/02/03 05:34:07;;;;;;;16.00;13.60;;;;;;;0.46;84.02;99850.01;105701;1254;64621;-71
2023/02/03 05:36:35;;;;;;;17.60;14.20;;;;;;;0.44;83.99;99849.73;105881;1253;60338;-71
2023/02/03 05:46:43;;;;;;;16.40;13.40;;;;;;;0.46;84.12;99840.61;103533;1288;600172;-71
2023/02/03 05:49:13;;;;;;;15.80;12.90;;;;;;;0.47;84.19;99841.46;104849;1270;59229;-71
2023/02/03 05:51:41;;;;;;;14.60;12.30;;;;;;;0.48;84.19;99841.56;104645;1272;59383;-70
2023/02/03 05:54:10;;;;;;;17.10;13.60;;;;;;;0.49;84.06;99842.38;104548;1273;65114;-70
2023/02/03 05:56:39;;;;;;;17.20;15.00;;;;;;;0.50;84.08;99848.59;104760;1270;59919;-70
2023/02/03 05:59:07;;;;;;;16.00;13.40;;;;;;;0.50;84.13;99851.55;104757;1267;65565;-71
2023/02/03 06:01:36;;;;;;;17.00;13.70;;;;;;;0.51;84.13;99850.30;104824;1270;59260;-71
2023/02/03 08:15:44;;;;;;;33.20;26.60;;;;;;;1.05;91.02;99882.25;103369;1285;605745;-71
2023/02/03 08:18:11;;;;;;;35.50;26.10;;;;;;;1.82;88.72;99878.90;104928;1267;86012;-73
2023/02/03 08:20:38;;;;;;;31.40;25.50;;;;;;;1.90;88.51;99878.63;105016;1267;59160;-72
2023/02/03 08:23:05;;;;;;;35.20;27.10;;;;;;;1.98;88.38;99876.98;104933;1269;64965;-74
2023/02/03 08:25:33;;;;;;;34.90;27.90;;;;;;;2.05;88.20;99876.80;104925;1270;59333;-71
2023/02/03 08:28:02;;;;;;;31.50;23.20;;;;;;;2.08;87.90;99881.36;104912;1270;65458;-68
2023/02/03 08:30:29;;;;;;;30.70;23.50;;;;;;;2.09;87.66;99879.39;104870;1269;60286;-69
2023/02/03 08:32:57;;;;;;;26.70;21.60;;;;;;;2.11;87.48;99878.21;105026;1267;59450;-74
2023/02/03 08:35:24;;;;;;;28.30;21.90;;;;;;;2.17;87.32;99873.73;104969;1269;65131;-74
2023/02/03 08:37:51;;;;;;;28.60;22.50;;;;;;;2.28;87.38;99871.58;104881;1265;59368;-73
2023/02/03 08:40:18;;;;;;;29.10;22.70;;;;;;;2.40;87.31;99870.98;104902;1269;65574;-72
2023/02/03 08:42:46;;;;;;;27.40;21.30;;;;;;;2.49;87.02;99874.45;104720;1271;59753;-72
2023/02/03 08:45:13;;;;;;;26.50;21.40;;;;;;;2.52;86.70;99876.92;104914;1265;59691;-73
2023/02/03 08:47:43;;;;;;;33.10;23.50;;;;;;;2.55;86.43;99876.21;105728;1260;65919;-72
2023/02/03 08:50:10;;;;;;;30.60;23.70;;;;;;;2.62;86.25;99878.48;106029;1254;59833;-73
2023/02/03 08:52:37;;;;;;;28.30;22.50;;;;;;;2.69;86.13;99878.07;105768;1259;65701;-70
2023/02/03 08:55:04;;;;;;;29.00;21.30;;;;;;;2.77;86.02;99871.50;105725;1254;59742;-70
2023/02/03 08:57:34;;;;;;;26.10;19.90;;;;;;;2.88;85.88;99863.13;105828;1254;59628;-74
2023/02/03 09:00:05;;;;;;;24.90;19.00;;;;;;;2.97;85.64;99861.23;106281;1259;65898;-72
2023/02/03 09:02:32;;;;;;;21.90;17.40;;;;;;;3.05;85.49;99859.20;106873;1254;59429;-68
2023/02/03 09:04:59;;;;;;;24.30;18.00;;;;;;;3.13;85.20;99858.22;106029;1254;65524;-71
2023/02/03 09:07:30;;;;;;;24.00;18.10;;;;;;;3.21;84.97;99853.95;105473;1259;59951;-70
2023/02/03 09:09:57;;;;;;;22.90;18.10;;;;;;;3.25;84.69;99850.02;105888;1259;59634;-72
2023/02/03 09:12:24;;;;;;;27.70;18.90;;;;;;;3.29;84.31;99847.36;105986;1261;64958;-71
2023/02/03 09:14:50;;;;;;;21.70;17.10;;;;;;;3.37;84.13;99848.48;105802;1255;60584;-72
2023/02/03 09:17:17;;;;;;;21.20;15.80;;;;;;;3.47;83.91;99847.55;105652;1260;65384;-71
2023/02/03 09:19:44;;;;;;;22.60;16.40;;;;;;;3.57;83.67;99846.98;105808;1259;59632;-74
2023/02/03 09:22:12;;;;;;;20.50;16.00;;;;;;;3.62;83.21;99845.27;105806;1260;59615;-73
2023/02/03 09:24:39;;;;;;;20.80;15.80;;;;;;;3.67;82.91;99845.31;105878;1261;65806;-71
2023/02/03 09:27:06;;;;;;;18.40;15.10;;;;;;;3.74;82.63;99847.16;105956;1260;60161;-71
2023/02/03 09:29:33;;;;;;;21.50;15.60;;;;;;;3.84;82.40;99849.36;105857;1257;65370;-74
2023/02/03 09:32:05;;;;;;;18.50;14.20;;;;;;;3.93;82.15;99849.67;105717;1257;59832;-75
2023/02/03 09:34:32;;;;;;;18.10;14.10;;;;;;;4.00;81.81;99852.88;105946;1260;59535;-74
2023/02/03 09:37:00;;;;;;;20.10;14.60;;;;;;;4.06;81.42;99850.27;105836;1260;65964;-73
2023/02/03 09:39:26;;;;;;;18.80;13.20;;;;;;;4.13;81.21;99848.66;105756;1260;59845;-73
2023/02/03 09:42:35;;;;;;;15.90;12.60;;;;;;;4.24;81.10;99844.48;105807;1257;64379;-74
2023/02/03 09:45:11;;;;;;;15.00;11.50;;;;;;;4.31;80.51;99849.41;105628;1260;59644;-76
2023/02/03 09:47:40;;;;;;;15.90;11.40;;;;;;;4.30;79.98;99847.06;105866;1261;59560;-76
2023/02/03 09:50:12;;;;;;;15.50;10.50;;;;;;;4.24;79.38;99850.04;105854;1257;66174;-76
2023/02/03 09:52:39;;;;;;;12.90;10.00;;;;;;;4.15;78.81;99850.43;105878;1260;59631;-76
2023/02/03 09:55:15;;;;;;;15.40;11.30;;;;;;;4.04;78.50;99850.55;105905;1262;65431;-75
2023/02/03 09:57:55;;;;;;;13.30;10.70;;;;;;;3.96;78.23;99850.15;106151;1257;59695;-76
2023/02/03 10:00:41;;;;;;;15.50;11.20;;;;;;;3.91;78.15;99849.82;105794;1254;59660;-79
2023/02/03 10:03:24;;;;;;;14.60;11.20;;;;;;;3.86;78.10;99846.09;105948;1257;65952;-78
2023/02/03 10:06:07;;;;;;;;;;;;;;;3.86;78.09;99842.25;106074;1254;59795;-76
2023/02/03 10:09:23;;;;;;;12.50;9.60;;;;;;;3.89;78.11;99841.20;105819;1260;65794;-73
2023/02/03 10:11:56;;;;;;;12.30;10.00;;;;;;;3.86;77.78;99841.91;105472;1263;59514;-76
2023/02/03 10:14:45;;;;;;;13.20;9.80;;;;;;;3.81;77.57;99846.25;105827;1257;59756;-75
2023/02/03 10:17:27;;;;;;;13.90;10.30;;;;;;;3.74;77.26;99847.84;105850;1259;66067;-76
2023/02/03 10:20:20;;;;;;;12.20;9.80;;;;;;;3.65;77.03;99843.52;105808;1262;59557;-75
2023/02/03 10:22:49;;;;;;;14.20;11.30;;;;;;;3.53;77.00;99840.08;106001;1257;65743;-74
2023/02/03 10:25:23;;;;;;;12.70;11.10;;;;;;;3.45;77.04;99839.98;105924;1255;59804;-77
2023/02/03 10:27:52;;;;;;;13.00;10.60;;;;;;;3.39;77.11;99837.20;105651;1257;59611;-77
2023/02/03 10:30:24;;;;;;;15.40;11.80;;;;;;;3.35;77.11;99839.02;105798;1260;65983;-76
2023/02/03 10:32:56;;;;;;;15.00;11.80;;;;;;;3.33;77.27;99838.41;106146;1260;59815;-76
2023/02/03 10:35:27;;;;;;;15.00;11.70;;;;;;;3.36;77.44;99837.73;106133;1258;64356;-77
2023/02/03 10:37:56;;;;;;;17.80;12.80;;;;;;;3.38;77.48;99836.03;105698;1263;59651;-75
2023/02/03 10:40:23;;;;;;;16.10;12.90;;;;;;;3.42;77.56;99833.92;105953;1255;59733;-77
2023/02/03 10:43:52;;;;;;;21.10;17.80;;;;;;;3.48;77.73;99834.63;106369;1260;65860;-75
2023/02/03 10:45:47;;;;;;;17.10;13.50;;;;;;;3.52;77.73;99833.86;105669;1257;59648;-76
2023/02/03 10:48:15;;;;;;;16.30;13.90;;;;;;;3.52;77.68;99833.31;105974;1256;65346;-74
2023/02/03 10:50:45;;;;;;;16.30;13.10;;;;;;;3.51;77.60;99832.73;105846;1261;59570;-77
2023/02/03 10:53:35;;;;;;;16.10;12.20;;;;;;;3.47;77.56;99831.36;106163;1254;59733;-76
2023/02/03 10:56:10;;;;;;;13.40;11.50;;;;;;;3.41;77.55;99831.33;105792;1257;64783;-76
2023/02/03 10:58:37;;;;;;;15.30;13.00;;;;;;;3.40;77.68;99829.48;106074;1261;59690;-76
2023/02/03 11:01:15;;;;;;;16.90;13.40;;;;;;;3.42;77.76;99826.39;106484;1260;65555;-76
2023/02/03 11:03:58;;;;;;;16.90;14.30;;;;;;;3.45;77.88;99823.07;106278;1261;59528;-76
2023/02/03 11:06:30;;;;;;;21.60;15.10;;;;;;;3.50;77.89;99819.14;106139;1254;59615;-73
2023/02/03 11:08:58;;;;;;;18.70;15.10;;;;;;;3.56;78.01;99823.35;106540;1257;64990;-76
2023/02/03 11:11:31;;;;;;;18.60;14.10;;;;;;;3.58;77.93;99819.39;106475;1260;59525;-75
2023/02/03 11:14:02;;;;;;;16.00;13.20;;;;;;;3.60;77.92;99815.98;107302;1254;63528;-73
2023/02/03 11:16:33;;;;;;;15.10;12.30;;;;;;;3.62;77.88;99812.91;105825;1260;59634;-75
2023/02/03 11:19:03;;;;;;;13.60;11.10;;;;;;;3.65;77.91;99806.75;105896;1257;59746;-75
2023/02/03 11:21:36;;;;;;;18.80;13.80;;;;;;;3.73;78.06;99802.83;105962;1255;65741;-77
2023/02/03 11:24:21;;;;;;;15.90;12.00;;;;;;;3.84;77.87;99800.27;105711;1259;60011;-76
2023/02/03 11:27:05;;;;;;;20.00;17.20;;;;;;;3.92;77.61;99802.17;105737;1260;65098;-77
2023/02/03 11:29:35;;;;;;;11.60;10.10;;;;;;;4.01;77.34;99799.36;105814;1260;59524;-79
2023/02/03 11:32:05;;;;;;;12.40;10.00;;;;;;;4.06;76.96;99799.07;106000;1257;59748;-76
2023/02/03 11:34:41;;;;;;;12.30;9.20;;;;;;;4.06;76.53;99797.14;105946;1256;65705;-74
2023/02/03 11:37:28;;;;;;;10.60;8.40;;;;;;;4.01;76.07;99798.48;105908;1260;59933;-76
2023/02/03 11:40:05;;;;;;;9.30;8.20;;;;;;;3.92;75.56;99795.58;106119;1257;65406;-75
2023/02/03 11:42:37;;;;;;;10.90;8.90;;;;;;;3.85;75.52;99797.03;105574;1257;59560;-73
2023/02/03 11:45:28;;;;;;;10.00;8.40;;;;;;;3.84;75.46;99796.06;105795;1254;60146;-76
2023/02/03 11:47:58;;;;;;;10.40;8.90;;;;;;;3.79;75.37;99791.66;105432;1260;65801;-76
2023/02/03 11:50:28;;;;;;;11.30;9.10;;;;;;;3.75;75.15;99791.73;105982;1256;59920;-76
2023/02/03 11:53:31;;;;;;;11.30;9.30;;;;;;;3.71;75.06;99787.98;105706;1257;65676;-76
2023/02/03 11:56:17;;;;;;;10.00;8.20;;;;;;;3.70;75.09;99789.02;105624;1257;59561;-76
2023/02/03 11:58:57;;;;;;;11.20;8.70;;;;;;;3.71;75.13;99784.65;105741;1254;59612;-77
2023/02/03 12:01:58;;;;;;;12.80;10.50;;;;;;;3.70;75.13;99782.44;105751;1258;65755;-77
2023/02/03 12:04:55;;;;;;;11.40;9.20;;;;;;;3.70;75.12;99783.81;105844;1257;60005;-76
2023/02/03 12:07:56;;;;;;;11.60;8.90;;;;;;;3.72;75.01;99781.48;105905;1257;65637;-76
2023/02/03 12:11:03;;;;;;;12.40;9.80;;;;;;;3.71;74.82;99787.64;105980;1258;59500;-73
2023/02/03 12:13:49;;;;;;;13.20;10.20;;;;;;;3.66;74.68;99787.02;105611;1255;59585;-76
2023/02/03 12:16:20;;;;;;;11.60;9.70;;;;;;;3.62;74.39;99797.05;105743;1254;64973;-76
2023/02/03 12:19:18;;;;;;;12.30;10.90;;;;;;;3.53;74.24;99796.69;105822;1260;59968;-73
2023/02/03 12:21:50;;;;;;;14.00;12.10;;;;;;;3.47;74.28;99797.41;105739;1258;65302;-75
2023/02/03 12:24:26;;;;;;;13.10;10.20;;;;;;;3.42;74.34;99799.79;105838;1257;59721;-77
2023/02/03 12:27:13;;;;;;;11.00;9.30;;;;;;;3.38;74.40;99802.81;105757;1260;59576;-75
2023/02/03 12:29:42;;;;;;;9.70;8.70;;;;;;;3.31;74.40;99804.65;106387;1254;64679;-77
2023/02/03 12:32:25;;;;;;;10.80;9.10;;;;;;;3.22;74.44;99801.83;105711;1259;59817;-78
2023/02/03 12:34:51;;;;;;;9.80;8.50;;;;;;;3.16;74.55;99802.91;105800;1257;65342;-78
2023/02/03 12:37:22;;;;;;;9.10;8.00;;;;;;;3.08;74.62;99805.94;106438;1256;60421;-81
2023/02/03 12:40:14;;;;;;;14.70;12.60;;;;;;;3.01;74.78;99805.16;105660;1257;60806;-80
2023/02/03 12:42:51;;;;;;;13.80;12.40;;;;;;;2.93;74.93;99807.86;105904;1256;66754;-81
2023/02/03 12:45:25;;;;;;;10.80;9.40;;;;;;;2.87;75.11;99806.31;105805;1260;60674;-80
2023/02/03 12:47:59;;;;;;;13.50;11.90;;;;;;;2.77;75.44;99808.78;105833;1257;65602;-80
2023/02/03 12:50:39;;;;;;;8.40;7.50;;;;;;;2.70;75.66;99811.09;105919;1259;60466;-78
2023/02/03 12:53:13;;;;;;;6.40;5.70;;;;;;;2.65;75.81;99820.05;105831;1260;60430;-79
2023/02/03 12:55:54;;;;;;;5.30;4.80;;;;;;;2.54;75.73;99819.81;105840;1258;66454;-79
2023/02/03 12:58:24;;;;;;;5.50;4.90;;;;;;;2.40;75.59;99823.34;105818;1254;60565;-81
2023/02/03 13:01:05;;;;;;;5.50;4.80;;;;;;;2.27;75.62;99821.27;106255;1255;65827;-80
2023/02/03 13:03:34;;;;;;;5.10;4.40;;;;;;;2.17;75.69;99814.49;105864;1254;60533;-80
2023/02/03 13:06:14;;;;;;;5.20;4.70;;;;;;;2.11;75.85;99815.52;105777;1254;60322;-79
2023/02/03 13:08:44;;;;;;;5.60;5.00;;;;;;;2.06;76.03;99820.48;105936;1258;66801;-78
2023/02/03 13:11:34;;;;;;;5.50;4.80;;;;;;;2.00;76.05;99821.33;106137;1254;60476;-79
2023/02/03 13:14:04;;;;;;;5.40;4.90;;;;;;;1.93;76.19;99823.77;105860;1257;65542;-79
2023/02/03 13:16:34;;;;;;;5.80;5.20;;;;;;;1.88;76.37;99828.20;105977;1256;60407;-82
2023/02/03 13:19:21;;;;;;;6.50;5.30;;;;;;;1.84;76.53;99828.79;105919;1262;60447;-80
2023/02/03 13:21:48;;;;;;;6.00;5.50;;;;;;;1.78;76.63;99830.81;105751;1261;66534;-80
2023/02/03 13:24:16;;;;;;;7.30;6.70;;;;;;;1.74;76.75;99829.46;105753;1260;60426;-80
2023/02/03 13:27:08;;;;;;;5.50;5.00;;;;;;;1.73;76.90;99830.91;105904;1259;65539;-76
2023/02/03 13:29:48;;;;;;;11.10;9.90;;;;;;;1.70;77.02;99827.80;105911;1257;60505;-78
2023/02/03 13:32:22;;;;;;;11.10;10.00;;;;;;;1.66;77.14;99824.70;105707;1257;60349;-79
2023/02/03 13:34:53;;;;;;;11.40;10.20;;;;;;;1.63;77.23;99826.73;105704;1259;66640;-83
2023/02/03 13:37:32;;;;;;;6.90;6.20;;;;;;;1.60;77.26;99830.05;105660;1257;60408;-79
2023/02/03 13:40:02;;;;;;;6.60;6.00;;;;;;;1.56;77.37;99825.05;105629;1257;64473;-81
2023/02/03 13:42:32;;;;;;;6.30;5.70;;;;;;;1.53;77.43;99827.97;105795;1257;60451;-79
2023/02/03 13:45:10;;;;;;;7.90;7.20;;;;;;;1.51;77.49;99828.03;105987;1260;59177;-80
2023/02/03 13:47:37;;;;;;;5.80;5.30;;;;;;;1.49;77.60;99829.90;105802;1255;66909;-77
2023/02/03 13:50:07;;;;;;;5.00;4.50;;;;;;;1.47;77.72;99827.23;105837;1257;60410;-80
2023/02/03 13:52:38;;;;;;;3.80;3.50;;;;;;;1.42;77.71;99829.91;105701;1254;65395;-78
2023/02/03 13:55:05;;;;;;;3.10;2.80;;;;;;;1.34;77.71;99832.06;105898;1256;60405;-80
2023/02/03 13:57:40;;;;;;;3.20;2.90;;;;;;;1.24;77.74;99832.73;105791;1256;60527;-80
2023/02/03 14:00:42;;;;;;;3.30;3.00;;;;;;;1.16;77.79;99835.02;105757;1257;66661;-79
2023/02/03 14:03:38;;;;;;;3.20;2.90;;;;;;;1.14;77.98;99833.73;105822;1257;60413;-77
2023/02/03 14:06:29;;;;;;;3.50;3.10;;;;;;;1.12;78.07;99834.18;105848;1259;65533;-76